Terminal Aerodrome Forecast
Issued by NWS

Home | Current Version | Previous Version | Text Only | Print | Product List | Glossary On
Versions: 1 2 3 4 5 6 7 8 9 10 11 12 13 14 15 16 17 18 19 20
327
FTUS43 KBIS 290713 AAA
TAFJMS
TAF AMD
KJMS 290713Z 2907/3006 12004KT 6SM HZ SKC
      TEMPO 2907/2910 2SM BR FEW025
     FM291000 VRB03KT 3SM BR FEW025
     FM291500 16008KT P6SM SKC=

USA.gov is the U.S. government's official web portal to all federal, state and local government web resources and services.